Time;durP1;ratioP1;P1;durP2;ratioP2;P2;SDS_P1;SDS_P2;PMS_P1;PMS_P2;Temp;Humidity;BMP_temperature;BMP_pressure;BME280_temperature;BME280_humidity;BME280_pressure;Samples;Min_cycle;Max_cycle;Signal;HPM_P1;HPM_P2
2022/06/19 05:17:04;;;;;;;;;;;;;;;;;;;;;
2022/06/19 05:20:21;;;;;;;;;;;;;;;;;;;;;
2022/06/19 05:22:58;;;;;;;7.22;0.73;;;12.50;99.90;;;;;;4733112;29;20053;-87
2022/06/19 05:25:49;;;;;;;5.00;0.73;;;12.40;99.90;;;;;;4720580;30;20139;-87
2022/06/19 05:28:30;;;;;;;4.10;0.50;;;12.40;99.90;;;;;;4651677;30;20440;-87
2022/06/19 06:04:00;;;;;;;4.57;0.60;;;12.20;99.90;;;;;;4848648;24;20597;-87
2022/06/19 06:20:36;;;;;;;7.65;0.60;;;12.30;99.90;;;;;;4716736;30;20087;-88
2022/06/19 06:26:46;;;;;;;4.57;0.83;;;12.40;99.90;;;;;;4681435;30;20053;-88
2022/06/19 06:29:17;;;;;;;3.20;0.47;;;12.40;99.90;;;;;;4668209;30;20712;-88
2022/06/19 06:31:46;;;;;;;4.38;1.05;;;12.40;99.90;;;;;;4694958;30;20072;-84
2022/06/19 06:34:12;;;;;;;3.63;0.30;;;12.50;99.90;;;;;;4716745;30;20053;-87
2022/06/19 06:36:37;;;;;;;3.30;0.40;;;12.60;99.90;;;;;;4715408;30;20432;-84
2022/06/19 06:39:03;;;;;;;2.50;0.28;;;12.70;99.90;;;;;;4716697;30;20107;-84
2022/06/19 06:41:29;;;;;;;4.00;0.40;;;12.80;99.90;;;;;;4702285;30;20065;-85
2022/06/19 06:43:55;;;;;;;2.78;0.40;;;12.90;99.90;;;;;;4702033;30;20083;-84
2022/06/19 06:46:25;;;;;;;4.60;0.43;;;12.90;99.90;;;;;;4717989;30;20138;-83
2022/06/19 06:48:59;;;;;;;5.35;0.50;;;13.00;99.90;;;;;;4772444;30;20485;-85
2022/06/19 06:51:26;;;;;;;7.38;1.02;;;13.40;99.90;;;;;;4771918;30;20540;-86
2022/06/19 06:53:53;;;;;;;4.45;1.02;;;13.00;99.90;;;;;;4772570;30;20417;-85
2022/06/19 06:56:20;;;;;;;6.10;0.73;;;13.10;99.90;;;;;;4760579;29;20051;-85
2022/06/19 06:58:46;;;;;;;2.03;0.40;;;13.10;99.90;;;;;;4826764;29;20054;-85
2022/06/19 07:01:16;;;;;;;3.67;0.47;;;13.20;99.90;;;;;;4827404;29;20057;-84
2022/06/19 07:03:47;;;;;;;2.88;0.50;;;13.20;99.90;;;;;;4827393;29;20050;-85
2022/06/19 07:06:13;;;;;;;3.15;0.73;;;12.90;99.90;;;;;;4827834;29;20061;-85
2022/06/19 07:08:39;;;;;;;2.08;0.40;;;13.40;99.90;;;;;;4845855;29;20053;-84
2022/06/19 07:11:05;;;;;;;3.80;0.50;;;13.40;99.90;;;;;;4845230;29;20092;-86
2022/06/19 08:38:43;;;;;;;;;;;;;;;;;;;;;
2022/06/19 09:36:29;;;;;;;2.20;0.40;;;15.50;99.90;;;;;;5167977;23;20062;-88
2022/06/19 10:26:30;;;;;;;0.52;0.20;;;16.20;99.90;;;;;;4824589;29;20058;-92
2022/06/19 10:29:30;;;;;;;0.75;0.10;;;16.20;99.90;;;;;;4808588;29;20145;-86
2022/06/19 10:32:11;;;;;;;0.20;0.10;;;16.10;99.90;;;;;;4808496;29;20058;-86
2022/06/19 10:34:54;;;;;;;0.10;0.10;;;16.20;99.90;;;;;;4809497;29;20058;-86
2022/06/19 10:38:06;;;;;;;0.47;0.10;;;16.50;99.90;;;;;;4808936;29;20066;-87
2022/06/19 10:40:58;;;;;;;0.43;0.10;;;16.40;99.90;;;;;;4789637;30;20078;-87
2022/06/19 10:43:49;;;;;;;1.45;0.17;;;16.30;99.90;;;;;;4790938;29;20338;-86
2022/06/19 10:46:29;;;;;;;1.13;0.20;;;16.10;99.90;;;;;;4786250;30;20196;-88
2022/06/19 10:49:36;;;;;;;0.30;0.10;;;16.10;99.90;;;;;;4790317;29;20079;-87
2022/06/19 10:52:50;;;;;;;2.38;0.20;;;16.00;99.90;;;;;;4719698;30;20068;-88
2022/06/19 10:55:27;;;;;;;;;;;15.90;99.90;;;;;;4628234;31;20093;-86
2022/06/19 10:58:13;;;;;;;2.40;0.20;;;16.00;99.90;;;;;;4631492;30;19936;-86
2022/06/19 11:00:39;;;;;;;0.32;0.10;;;16.10;99.90;;;;;;4617232;31;20123;-86
2022/06/19 11:06:08;;;;;;;1.27;0.20;;;16.00;99.90;;;;;;4630684;30;20056;-86
2022/06/19 11:08:35;;;;;;;1.63;0.10;;;16.10;99.90;;;;;;4615710;30;20059;-86
2022/06/19 11:11:02;;;;;;;1.45;0.20;;;16.10;99.90;;;;;;4630220;31;20051;-86
2022/06/19 11:14:07;;;;;;;0.77;0.20;;;16.20;99.90;;;;;;4617572;30;20119;-86
2022/06/19 11:16:50;;;;;;;4.70;0.32;;;16.20;99.90;;;;;;4646279;30;20543;-86
2022/06/19 11:19:30;;;;;;;0.57;0.20;;;16.00;99.90;;;;;;4663928;30;20142;-86
2022/06/19 11:21:56;;;;;;;0.93;0.30;;;15.90;99.90;;;;;;4649646;30;20069;-88
2022/06/19 11:24:33;;;;;;;1.27;0.35;;;15.90;99.90;;;;;;4663514;30;20058;-86
2022/06/19 11:27:00;;;;;;;0.80;0.20;;;15.80;99.90;;;;;;4650051;30;20540;-87
2022/06/19 11:29:39;;;;;;;1.60;0.20;;;15.70;99.90;;;;;;4667027;30;20046;-87
2022/06/19 11:32:11;;;;;;;2.13;0.40;;;15.70;99.90;;;;;;4722764;30;20089;-87
2022/06/19 11:34:47;;;;;;;1.83;0.35;;;15.50;99.90;;;;;;4735981;30;20161;-86
2022/06/19 11:37:44;;;;;;;;;;;;;;;;;;;;;
2022/06/19 11:48:11;;;;;;;3.33;0.30;;;15.90;99.90;;;;;;4821288;24;20465;-87
2022/06/19 11:50:43;;;;;;;3.45;0.50;;;16.10;99.90;;;;;;4823953;29;20054;-87
2022/06/19 11:53:14;;;;;;;1.00;0.20;;;15.50;99.90;;;;;;4808383;29;20050;-86
2022/06/19 11:55:50;;;;;;;2.03;0.30;;;15.50;99.90;;;;;;4807961;29;20121;-87
2022/06/19 11:58:56;;;;;;;1.27;0.30;;;15.50;99.90;;;;;;4808164;29;20527;-88
2022/06/19 12:01:33;;;;;;;5.07;0.47;;;15.50;99.90;;;;;;4753079;30;20051;-87
2022/06/19 12:04:01;;;;;;;3.88;0.47;;;15.90;99.90;;;;;;4744614;30;20055;-89
2022/06/19 12:06:49;;;;;;;3.00;0.30;;;15.60;99.90;;;;;;4745513;30;20048;-88
2022/06/19 12:09:43;;;;;;;2.92;0.30;;;15.70;99.90;;;;;;4751245;30;20083;-87
2022/06/19 12:12:12;;;;;;;2.75;0.50;;;15.70;99.90;;;;;;4753586;30;20094;-88
2022/06/19 12:14:53;;;;;;;2.42;0.32;;;15.60;99.90;;;;;;4757797;30;20055;-89
2022/06/19 12:17:30;;;;;;;2.58;0.22;;;15.60;99.90;;;;;;4753720;30;20479;-89
2022/06/19 12:20:16;;;;;;;0.88;0.40;;;15.50;99.90;;;;;;4767320;30;20058;-89
2022/06/19 12:23:11;;;;;;;3.80;0.38;;;15.50;99.90;;;;;;4750754;30;20048;-91
2022/06/19 12:37:05;;;;;;;3.28;0.40;;;16.20;99.90;;;;;;4823913;29;20057;-86
2022/06/19 12:39:32;;;;;;;3.38;0.40;;;16.50;99.90;;;;;;4786895;29;20046;-89
2022/06/19 12:42:27;;;;;;;1.75;0.28;;;16.70;99.90;;;;;;4807006;29;20270;-86
2022/06/19 12:45:03;;;;;;;1.85;0.40;;;16.90;99.90;;;;;;4752310;30;20545;-87
2022/06/19 12:47:44;;;;;;;2.00;0.40;;;17.30;99.90;;;;;;4767494;30;20051;-87
2022/06/19 12:50:44;;;;;;;4.47;0.38;;;17.40;99.90;;;;;;4734264;30;20070;-87
2022/06/19 12:53:33;;;;;;;3.00;0.30;;;17.30;99.90;;;;;;4752527;30;20118;-85
2022/06/19 12:56:33;;;;;;;0.80;0.28;;;17.60;99.90;;;;;;4752201;30;20059;-87
2022/06/19 12:59:20;;;;;;;1.15;0.20;;;17.60;99.90;;;;;;4752343;30;20058;-86
2022/06/19 13:02:10;;;;;;;1.90;0.30;;;17.70;99.90;;;;;;4767150;30;20056;-86
2022/06/19 13:04:58;;;;;;;3.78;0.30;;;17.80;99.90;;;;;;4752355;30;20055;-86
2022/06/19 13:07:44;;;;;;;3.00;0.40;;;17.60;99.90;;;;;;4767064;30;20063;-87
2022/06/19 13:10:36;;;;;;;3.58;0.40;;;17.60;99.90;;;;;;4767164;30;20040;-86
2022/06/19 13:24:31;;;;;;;3.30;0.40;;;17.80;99.90;;;;;;4819579;29;20052;-88
2022/06/19 13:38:08;;;;;;;3.28;0.43;;;18.90;99.90;;;;;;4822816;29;20065;-88
2022/06/19 13:41:01;;;;;;;1.88;0.30;;;19.20;99.90;;;;;;4806424;29;20095;-88
2022/06/19 13:44:13;;;;;;;2.60;0.30;;;19.10;99.90;;;;;;4811903;29;20125;-89
2022/06/19 13:47:21;;;;;;;9.32;0.57;;;19.10;99.90;;;;;;4793601;29;20310;-89
2022/06/19 13:49:58;;;;;;;4.88;0.60;;;19.60;99.90;;;;;;4815982;29;20057;-88
2022/06/19 13:52:45;;;;;;;3.35;0.40;;;19.80;99.90;;;;;;4826136;29;20157;-88
2022/06/19 13:55:29;;;;;;;4.55;0.40;;;19.70;99.90;;;;;;4809845;29;20399;-89
2022/06/19 13:57:54;;;;;;;6.63;0.40;;;20.00;99.40;;;;;;4819758;29;20552;-88
2022/06/19 14:00:26;;;;;;;3.25;0.40;;;20.10;99.30;;;;;;4815047;29;20155;-88
2022/06/19 14:04:45;;;;;;;1.05;0.28;;;20.00;99.90;;;;;;4809992;29;20046;-89
2022/06/19 14:06:30;;;;;;;4.35;0.40;;;20.40;99.50;;;;;;4806627;29;20108;-88
2022/06/19 14:09:22;;;;;;;2.95;0.50;;;20.60;99.30;;;;;;4811113;29;20050;-88
2022/06/19 14:12:08;;;;;;;3.65;0.57;;;21.10;96.40;;;;;;4809414;29;20469;-89
2022/06/19 14:14:42;;;;;;;1.65;0.47;;;21.30;96.00;;;;;;4809455;29;20050;-88
2022/06/19 14:17:23;;;;;;;1.58;0.60;;;21.20;96.80;;;;;;4810050;29;20073;-89
2022/06/19 14:20:07;;;;;;;3.00;0.43;;;20.90;96.40;;;;;;4811961;29;20050;-86
2022/06/19 14:22:42;;;;;;;3.78;0.30;;;20.80;94.90;;;;;;4811630;29;20133;-90
2022/06/19 14:25:18;;;;;;;3.55;0.30;;;20.50;96.20;;;;;;4827079;29;20133;-87
2022/06/19 14:28:41;;;;;;;1.13;0.52;;;20.00;96.20;;;;;;4815788;29;20047;-89
2022/06/19 14:31:38;;;;;;;4.03;0.30;;;19.70;96.30;;;;;;4721057;30;20130;-88
2022/06/19 14:34:47;;;;;;;;;;;;;;;;;;;;;
2022/06/19 14:37:53;;;;;;;5.15;0.73;;;19.70;96.30;;;;;;4811405;29;20050;-90
2022/06/19 14:40:33;;;;;;;2.17;0.38;;;19.60;97.30;;;;;;4805900;29;20137;-91
2022/06/19 14:43:21;;;;;;;;;;;;;;;;;;;;;
2022/06/19 14:46:44;;;;;;;1.75;0.40;;;19.60;97.60;;;;;;4802414;29;20066;-90
2022/06/19 14:53:40;;;;;;;2.70;0.70;;;20.20;96.30;;;;;;4785548;29;20055;-90
2022/06/19 15:14:01;;;;;;;;;;;;;;;;;;;;;
2022/06/19 15:16:43;;;;;;;3.53;0.70;;;20.50;94.00;;;;;;4799660;24;20050;-91
2022/06/19 15:19:33;;;;;;;4.22;0.85;;;20.80;93.50;;;;;;4798729;29;20121;-91
2022/06/19 15:22:01;;;;;;;4.50;0.50;;;20.80;95.00;;;;;;4828466;29;20058;-94
2022/06/19 15:24:30;;;;;;;2.63;0.50;;;20.90;94.00;;;;;;4823269;29;20053;-93
2022/06/19 15:27:14;;;;;;;1.75;0.35;;;20.90;94.80;;;;;;4794288;29;20501;-92
2022/06/19 15:29:45;;;;;;;6.78;0.40;;;20.80;93.90;;;;;;4824692;29;20050;-92
2022/06/19 15:32:22;;;;;;;5.03;0.40;;;20.60;95.00;;;;;;4825275;29;20110;-85
2022/06/19 15:35:22;;;;;;;3.80;0.50;;;20.50;95.10;;;;;;4815461;29;20129;-86
2022/06/19 15:37:51;;;;;;;4.45;0.70;;;20.10;95.80;;;;;;4790324;29;20058;-86
2022/06/19 15:40:24;;;;;;;4.22;0.50;;;19.90;95.90;;;;;;4790786;29;20550;-88
2022/06/19 15:43:15;;;;;;;4.35;0.70;;;19.70;96.30;;;;;;4798396;29;20050;-86
2022/06/19 15:46:16;;;;;;;3.15;0.60;;;19.40;99.00;;;;;;4810117;29;20565;-87
2022/06/19 15:48:47;;;;;;;5.80;0.68;;;19.20;98.40;;;;;;4809911;29;20124;-86
2022/06/19 15:51:32;;;;;;;4.35;0.57;;;19.50;97.30;;;;;;4804335;29;20062;-84
2022/06/19 15:54:08;;;;;;;4.43;0.63;;;19.20;98.60;;;;;;4790475;29;20097;-90
2022/06/19 15:56:47;;;;;;;4.60;0.40;;;19.00;99.10;;;;;;4790618;29;20055;-87
2022/06/19 15:59:28;;;;;;;4.10;0.55;;;18.70;99.30;;;;;;4792000;29;20142;-90
2022/06/19 16:02:03;;;;;;;2.85;0.45;;;18.60;99.70;;;;;;4806688;29;20221;-93
2022/06/19 16:05:00;;;;;;;2.30;0.40;;;18.50;99.90;;;;;;4804739;29;20086;-94
2022/06/19 16:07:46;;;;;;;5.97;0.50;;;18.40;99.90;;;;;;4770396;30;20063;-92
2022/06/19 16:10:32;;;;;;;2.20;0.47;;;18.30;99.90;;;;;;4769196;30;20044;-89
2022/06/19 16:13:12;;;;;;;4.20;0.60;;;18.40;99.90;;;;;;4773350;30;20056;-93
2022/06/19 16:15:48;;;;;;;2.30;0.30;;;18.30;99.90;;;;;;4769148;30;20062;-93
2022/06/19 16:18:28;;;;;;;3.78;0.50;;;18.10;99.90;;;;;;4757812;30;20062;-90
2022/06/19 16:20:58;;;;;;;3.60;0.60;;;17.90;99.90;;;;;;4786985;30;20095;-93
2022/06/19 16:23:29;;;;;;;4.38;0.40;;;18.20;99.90;;;;;;4767792;30;20051;-93
2022/06/19 16:25:59;;;;;;;5.55;0.63;;;17.90;99.90;;;;;;4769685;30;20047;-93
2022/06/19 16:32:07;;;;;;;2.83;0.50;;;17.80;99.90;;;;;;4820334;24;20085;-90
2022/06/19 16:46:29;;;;;;;5.72;0.70;;;17.40;99.90;;;;;;4807683;29;20059;-90
2022/06/19 16:48:58;;;;;;;2.25;0.60;;;17.40;99.90;;;;;;4808071;29;20103;-90
2022/06/19 16:51:26;;;;;;;2.88;0.70;;;17.50;99.90;;;;;;4807631;29;20404;-93
2022/06/19 16:53:58;;;;;;;1.83;0.28;;;17.40;99.90;;;;;;4807713;29;20054;-93
2022/06/19 17:00:19;;;;;;;5.60;0.55;;;17.30;99.90;;;;;;4823019;29;20041;-92
2022/06/19 17:10:03;;;;;;;4.22;0.40;;;17.00;99.90;;;;;;5227138;24;20157;-90
2022/06/19 17:16:19;;;;;;;4.97;0.70;;;17.00;99.90;;;;;;4923167;24;21755;-94
2022/06/19 17:18:52;;;;;;;2.05;0.40;;;17.10;99.90;;;;;;4812797;29;20078;-91
2022/06/19 17:41:29;;;;;;;2.55;0.50;;;17.00;99.90;;;;;;4906333;24;20496;-88
2022/06/19 17:44:06;;;;;;;;;;;;;;;;;;;;;
2022/06/19 17:59:27;;;;;;;4.25;0.60;;;16.60;99.90;;;;;;4883180;24;20061;-87
2022/06/19 18:02:22;;;;;;;3.67;0.40;;;16.70;99.90;;;;;;4857946;29;20038;-87
2022/06/19 18:06:12;;;;;;;;;;;;;;;;;;;;;
2022/06/19 18:11:43;;;;;;;1.08;0.30;;;16.40;99.90;;;;;;4941817;24;20061;-87
2022/06/19 18:18:50;;;;;;;3.83;0.50;;;16.20;99.90;;;;;;4844179;29;20092;-87
2022/06/19 18:23:56;;;;;;;6.10;0.47;;;16.30;99.90;;;;;;4829611;24;20070;-87
2022/06/19 18:27:10;;;;;;;6.88;0.50;;;16.20;99.90;;;;;;4818847;29;20050;-91
2022/06/19 18:36:47;;;;;;;3.72;0.50;;;15.50;99.90;;;;;;4664791;30;20059;-86
2022/06/19 18:39:26;;;;;;;4.35;0.52;;;15.30;99.90;;;;;;4648578;30;20513;-86
2022/06/19 18:42:50;;;;;;;2.75;0.30;;;16.00;99.90;;;;;;4662223;30;20505;-88
2022/06/19 18:46:08;;;;;;;2.58;1.20;;;16.00;99.90;;;;;;4811622;24;20050;-89
2022/06/19 18:48:38;;;;;;;1.60;0.38;;;16.00;99.90;;;;;;4830901;24;20054;-89
2022/06/19 18:51:05;;;;;;;2.33;0.43;;;15.90;99.90;;;;;;4822314;29;20096;-86
2022/06/19 18:53:33;;;;;;;2.03;0.38;;;15.70;99.90;;;;;;4818822;29;20445;-86
2022/06/19 18:56:00;;;;;;;5.47;0.35;;;15.60;99.90;;;;;;4823805;29;20102;-87
2022/06/19 18:58:28;;;;;;;2.28;0.40;;;15.80;99.90;;;;;;4825045;29;20133;-85
2022/06/19 19:00:56;;;;;;;3.08;0.50;;;15.60;99.90;;;;;;4808270;29;20050;-87
2022/06/19 19:03:24;;;;;;;3.22;0.50;;;15.60;99.90;;;;;;4807582;29;20079;-87
2022/06/19 19:05:51;;;;;;;0.63;0.20;;;15.60;99.90;;;;;;4806500;29;20122;-87
2022/06/19 19:08:27;;;;;;;2.17;0.30;;;15.60;99.90;;;;;;4800866;29;20125;-87
2022/06/19 19:10:56;;;;;;;1.38;0.20;;;15.50;99.90;;;;;;4807362;29;20055;-86
2022/06/19 19:13:41;;;;;;;2.75;0.40;;;15.50;99.90;;;;;;4807093;29;20134;-86
2022/06/19 19:16:25;;;;;;;1.33;0.32;;;15.50;99.90;;;;;;4805969;29;20123;-87
2022/06/19 19:18:56;;;;;;;3.65;0.40;;;15.50;99.90;;;;;;4813277;29;20062;-86
2022/06/19 19:21:27;;;;;;;2.25;0.32;;;15.40;99.90;;;;;;4823939;29;20125;-86
2022/06/19 19:23:56;;;;;;;1.25;0.40;;;15.40;99.90;;;;;;4812493;29;20061;-87
2022/06/19 19:26:25;;;;;;;3.65;0.57;;;15.40;99.90;;;;;;4806183;29;20389;-87
2022/06/19 19:28:57;;;;;;;3.85;0.40;;;15.70;99.90;;;;;;4807231;29;20130;-87
2022/06/19 19:31:25;;;;;;;1.75;0.20;;;15.30;99.90;;;;;;4805338;29;20043;-87
2022/06/19 19:33:57;;;;;;;1.40;0.20;;;15.30;99.90;;;;;;4807606;29;20509;-86
2022/06/19 19:36:29;;;;;;;3.42;0.30;;;15.30;99.90;;;;;;4806485;29;20074;-86
2022/06/19 19:38:56;;;;;;;0.75;0.20;;;15.30;99.90;;;;;;4806339;29;20070;-86
2022/06/19 19:41:22;;;;;;;1.88;0.38;;;15.20;99.90;;;;;;4813521;29;20042;-88
2022/06/19 19:43:48;;;;;;;1.58;0.30;;;15.10;99.90;;;;;;4820325;29;20458;-87
2022/06/19 19:46:17;;;;;;;2.42;0.32;;;15.20;99.90;;;;;;4821568;29;20058;-86
2022/06/19 19:48:47;;;;;;;1.70;0.35;;;15.10;99.90;;;;;;4823115;29;20057;-87
2022/06/19 19:51:14;;;;;;;1.60;0.40;;;15.10;99.90;;;;;;4822541;29;20047;-88
2022/06/19 19:53:40;;;;;;;3.30;0.30;;;15.10;99.90;;;;;;4823559;29;20492;-87
2022/06/19 19:56:12;;;;;;;3.10;0.40;;;15.10;99.90;;;;;;4819955;29;20473;-87
2022/06/19 19:58:51;;;;;;;1.88;0.40;;;15.00;99.90;;;;;;4804967;29;20090;-86
2022/06/19 20:01:18;;;;;;;0.82;0.28;;;15.00;99.90;;;;;;4804580;29;20485;-88
2022/06/19 20:03:48;;;;;;;2.70;0.30;;;15.00;99.90;;;;;;4804734;29;20504;-92
2022/06/19 20:11:48;;;;;;;0.40;0.20;;;15.00;99.90;;;;;;4822845;29;20496;-88
2022/06/19 20:14:14;;;;;;;2.97;0.40;;;15.00;99.90;;;;;;4810399;29;20078;-88
2022/06/19 20:16:40;;;;;;;2.20;0.40;;;15.00;99.90;;;;;;4804887;29;20053;-87
2022/06/19 20:19:06;;;;;;;2.58;0.88;;;14.90;99.90;;;;;;4821431;29;20077;-88
2022/06/19 20:21:36;;;;;;;1.67;0.30;;;14.90;99.90;;;;;;4822782;29;20082;-89
2022/06/19 20:24:25;;;;;;;2.95;0.40;;;15.10;99.90;;;;;;4806163;29;20047;-90
2022/06/19 20:27:09;;;;;;;;;;;;;;;;;;;;;
2022/06/19 20:30:12;;;;;;;0.40;0.20;;;14.80;99.90;;;;;;4806255;29;20070;-90
2022/06/19 20:50:35;;;;;;;;;;;;;;;;;;;;;
2022/06/19 21:18:27;;;;;;;1.67;0.43;;;14.40;99.90;;;;;;6093642;23;20462;-88
2022/06/19 21:21:47;;;;;;;;;;;;;;;;;;;;;
2022/06/19 21:52:12;;;;;;;3.15;0.30;;;14.30;99.90;;;;;;6106187;23;20029;-91
2022/06/19 21:58:11;;;;;;;0.57;0.20;;;14.10;99.90;;;;;;6253762;22;20020;-88
2022/06/19 22:02:02;;;;;;;;;;;;;;;;;;;;;
2022/06/19 22:19:25;;;;;;;;;;;;;;;;;;;;;
2022/06/19 22:27:04;;;;;;;;;;;;;;;;;;;;;
2022/06/19 22:29:55;;;;;;;;;;;;;;;;;;;;;
2022/06/19 22:33:00;;;;;;;1.42;0.20;;;13.90;99.90;;;;;;6043432;23;20025;-88
2022/06/19 22:36:24;;;;;;;;;;;;;;;;;;;;;
2022/06/19 22:39:11;;;;;;;2.63;0.40;;;14.00;99.90;;;;;;6017216;23;20358;-88
2022/06/19 22:42:34;;;;;;;;;;;;;;;;;;;;;
